New Harbour, Canada
Current Conditions -  °F | °C
As of 10:34 PM on Tuesday 27 Jan 2015 (Local Time) from CYYT Reporting Station
Freezing Rain Freezing Rain  
Wind Chill: 18°   Ceiling: 300
Heat Index: 30°   Visibility: 0.75mi
Dew Point: 28°   Wind: 18mph
Humidity: 93%   Direction: 100°E
Pressure: 29.9"   Gusts: 28mph
Location:  47.58°N, 53.55°W
Report Text: CYYT 280134Z 10016G24KT 3/4SM R11/P6000FT/D R16/P6000FT/D -FZRA BR OVC003 M01/M02 A2990 RMK FG6SF2 SLP134
Loading
Personal Weather Stations






























Interactive Weather Map New forecast layout! Learn more

10-Day Weather Forecast

Advertisements
Track Severe Weather on mobile